Hub


Voltar

 INFORMAÇÕES METEOROLÓGICAS

METAR FOR EVRA


ADDS - METARS form results

(1021 UTC 21 August 2019)
Data provider http://aviationweather.gov/metar/data/
 
METAR text: EVRA 211020Z 35005KT 9999 -RA NSC 16/13 Q1022 NOSIG
Conditions at: EVRA (RIGA AIRPORT , LV) observed 1020 UTC 21 August 2019
Temperature: 16.0°C (61°F)
Dewpoint: 13.0°C (55°F) [RH = 82%]
Pressure (altimeter): 30.18 inches Hg (1022.0 mb)
Winds: from the N (350 degrees) at 6 MPH (5 knots; 2.6 m/s)
Visibility: 6 or more miles (10+ km)
Ceiling: at least 12,000 feet AGL
Clouds: sky clear below 12,000 feet AGL
Weather: -RA  (light rain)

METAR text: EVRA 210950Z 35005KT 9999 -RA NSC 16/13 Q1022 NOSIG
Conditions at: EVRA (RIGA AIRPORT , LV) observed 0950 UTC 21 August 2019
Temperature: 16.0°C (61°F)
Dewpoint: 13.0°C (55°F) [RH = 82%]
Pressure (altimeter): 30.18 inches Hg (1022.0 mb)
Winds: from the N (350 degrees) at 6 MPH (5 knots; 2.6 m/s)
Visibility: 6 or more miles (10+ km)
Ceiling: at least 12,000 feet AGL
Clouds: sky clear below 12,000 feet AGL
Weather: -RA  (light rain)

Forecast for: EVRA (RIGA AIRPORT , LV)
Text: TAF EVRA 210801Z 2109/2209 27005KT 9000 BKN040
Forecast period: 0900 UTC 21 August 2019 to 0900 UTC 22 August 2019
Forecast type: FROM: standard forecast or significant change
Winds: from the W (270 degrees) at 6 MPH (5 knots; 2.6 m/s)
Visibility: 6 miles (9 km)
Ceiling: 4000 feet AGL
Clouds: broken clouds at 4000 feet AGL
Weather: no significant weather forecast for this period
Text: TEMPO 2109/2118 SCT020CB
Forecast period: 0900 to 1800 UTC 21 August 2019
Forecast type: TEMPORARY: The following changes expected for less than half the time period
Visibility: missing
Ceiling: at least 12,000 feet AGL
Clouds: scattered clouds at 2000 feet AGL
Weather: no significant weather forecast for this period
Text: TEMPO 2120/2204 0600 FG VV001
Forecast period: 2000 UTC 21 August 2019 to 0400 UTC 22 August 2019
Forecast type: TEMPORARY: The following changes expected for less than half the time period
Visibility: 0.37 miles (0.60 km)
Ceiling: indefinite ceiling with vertical visibility of 100 feet AGL
Clouds: obscured sky
Weather: FG  (fog)


 MAPA DO AEROPORTO


 INFORMAÇÕES DA PISTA

Pista 18 Tamanho da pista 10499 ft Largura da pista 148 ft
Elevação da pista 31 ft Ranhura da pista 0 ft Proa da pista 185
Pista 36 Tamanho da pista 10499 ft Largura da pista 148 ft
Elevação da pista 34 ft Ranhura da pista 0 ft Proa da pista 5

 FREQUÊNCIAS DO AEROPORTO

Tipo APP Nome APP Frequência 129.925 MHZ
Tipo ATIS Nome ATIS Frequência 121.2 MHZ
Tipo GND Nome Riga Groun Frequência 118.8 MHZ
Tipo MISC Nome Riga Apron Frequência 131.6 MHZ
Tipo TWR Nome TWR Frequência 118.1 MHZ

 AUXÍLIOS DE NAVEGAÇÃO PRÓXIMOS AO AEROPORTO

Tipo VOR-DME Nome Riga Frequência 112050 KHZ
Tipo VOR-DME Nome Riga Frequência 113700 KHZ